sensor_id;sensor_type;location;lat;lon;timestamp;temperature;humidity
12622;DHT22;6376;48.182;-1.644;2023-04-29T00:00:53;15.00;87.70
12622;DHT22;6376;48.182;-1.644;2023-04-29T00:03:18;15.00;87.70
12622;DHT22;6376;48.182;-1.644;2023-04-29T00:05:44;15.00;87.80
12622;DHT22;6376;48.182;-1.644;2023-04-29T00:08:10;15.00;87.80
12622;DHT22;6376;48.182;-1.644;2023-04-29T00:10:36;15.00;87.70
12622;DHT22;6376;48.182;-1.644;2023-04-29T00:13:02;15.00;87.80
12622;DHT22;6376;48.182;-1.644;2023-04-29T00:15:28;15.00;87.80
12622;DHT22;6376;48.182;-1.644;2023-04-29T00:17:53;15.00;87.80
12622;DHT22;6376;48.182;-1.644;2023-04-29T00:20:20;15.00;87.80
12622;DHT22;6376;48.182;-1.644;2023-04-29T00:22:45;15.00;87.80
12622;DHT22;6376;48.182;-1.644;2023-04-29T00:25:11;15.00;87.80
12622;DHT22;6376;48.182;-1.644;2023-04-29T00:27:37;15.00;87.80
12622;DHT22;6376;48.182;-1.644;2023-04-29T00:30:05;15.00;87.80
12622;DHT22;6376;48.182;-1.644;2023-04-29T00:32:31;15.00;87.80
12622;DHT22;6376;48.182;-1.644;2023-04-29T00:34:57;15.00;87.80
12622;DHT22;6376;48.182;-1.644;2023-04-29T00:37:22;14.90;87.80
12622;DHT22;6376;48.182;-1.644;2023-04-29T00:39:48;15.00;87.90
12622;DHT22;6376;48.182;-1.644;2023-04-29T00:42:14;14.90;87.80
12622;DHT22;6376;48.182;-1.644;2023-04-29T00:44:39;14.90;87.80
12622;DHT22;6376;48.182;-1.644;2023-04-29T00:47:05;14.90;87.90
12622;DHT22;6376;48.182;-1.644;2023-04-29T00:49:39;14.90;88.00
12622;DHT22;6376;48.182;-1.644;2023-04-29T00:52:05;14.90;88.00
12622;DHT22;6376;48.182;-1.644;2023-04-29T00:54:35;14.90;87.90
12622;DHT22;6376;48.182;-1.644;2023-04-29T00:57:02;14.90;88.00
12622;DHT22;6376;48.182;-1.644;2023-04-29T00:59:29;14.90;88.00
12622;DHT22;6376;48.182;-1.644;2023-04-29T01:01:59;14.90;88.00
12622;DHT22;6376;48.182;-1.644;2023-04-29T01:04:25;14.90;88.10
12622;DHT22;6376;48.182;-1.644;2023-04-29T01:15:04;14.90;88.10
12622;DHT22;6376;48.182;-1.644;2023-04-29T01:18:04;14.90;88.10
12622;DHT22;6376;48.182;-1.644;2023-04-29T01:20:31;14.90;88.10
12622;DHT22;6376;48.182;-1.644;2023-04-29T01:22:57;14.80;88.10
12622;DHT22;6376;48.182;-1.644;2023-04-29T01:25:23;14.80;88.10
12622;DHT22;6376;48.182;-1.644;2023-04-29T01:28:04;14.80;88.20
12622;DHT22;6376;48.182;-1.644;2023-04-29T01:36:18;14.80;88.20
12622;DHT22;6376;48.182;-1.644;2023-04-29T01:41:28;14.80;88.20
12622;DHT22;6376;48.182;-1.644;2023-04-29T01:43:57;14.80;88.20
12622;DHT22;6376;48.182;-1.644;2023-04-29T01:46:23;14.80;88.30
12622;DHT22;6376;48.182;-1.644;2023-04-29T01:48:52;14.80;88.30
12622;DHT22;6376;48.182;-1.644;2023-04-29T01:51:18;14.80;88.30
12622;DHT22;6376;48.182;-1.644;2023-04-29T01:53:43;14.80;88.30
12622;DHT22;6376;48.182;-1.644;2023-04-29T01:56:09;14.70;88.30
12622;DHT22;6376;48.182;-1.644;2023-04-29T01:58:35;14.80;88.30
12622;DHT22;6376;48.182;-1.644;2023-04-29T02:01:00;14.80;88.30
12622;DHT22;6376;48.182;-1.644;2023-04-29T02:03:26;14.80;88.30
12622;DHT22;6376;48.182;-1.644;2023-04-29T02:05:52;14.70;88.30
12622;DHT22;6376;48.182;-1.644;2023-04-29T02:08:17;14.80;88.30
12622;DHT22;6376;48.182;-1.644;2023-04-29T02:10:57;14.70;88.20
12622;DHT22;6376;48.182;-1.644;2023-04-29T02:13:23;14.70;88.20
12622;DHT22;6376;48.182;-1.644;2023-04-29T02:15:49;14.70;88.10
12622;DHT22;6376;48.182;-1.644;2023-04-29T02:18:15;14.70;88.10
12622;DHT22;6376;48.182;-1.644;2023-04-29T02:20:41;14.80;88.30
12622;DHT22;6376;48.182;-1.644;2023-04-29T02:23:06;14.70;88.10
12622;DHT22;6376;48.182;-1.644;2023-04-29T02:25:32;14.70;88.10
12622;DHT22;6376;48.182;-1.644;2023-04-29T02:27:57;14.70;88.10
12622;DHT22;6376;48.182;-1.644;2023-04-29T02:30:23;14.70;88.10
12622;DHT22;6376;48.182;-1.644;2023-04-29T02:32:49;14.80;88.20
12622;DHT22;6376;48.182;-1.644;2023-04-29T02:35:14;14.70;88.20
12622;DHT22;6376;48.182;-1.644;2023-04-29T02:37:40;14.70;88.20
12622;DHT22;6376;48.182;-1.644;2023-04-29T02:40:06;14.70;88.20
12622;DHT22;6376;48.182;-1.644;2023-04-29T02:42:32;14.70;88.30
12622;DHT22;6376;48.182;-1.644;2023-04-29T02:44:58;14.70;88.20
12622;DHT22;6376;48.182;-1.644;2023-04-29T02:47:23;14.70;88.20
12622;DHT22;6376;48.182;-1.644;2023-04-29T02:49:49;14.70;88.20
12622;DHT22;6376;48.182;-1.644;2023-04-29T02:52:15;14.70;88.20
12622;DHT22;6376;48.182;-1.644;2023-04-29T02:54:41;14.70;88.20
12622;DHT22;6376;48.182;-1.644;2023-04-29T02:57:07;14.70;88.20
12622;DHT22;6376;48.182;-1.644;2023-04-29T02:59:33;14.70;88.20
12622;DHT22;6376;48.182;-1.644;2023-04-29T03:01:59;14.70;88.20
12622;DHT22;6376;48.182;-1.644;2023-04-29T03:04:26;14.70;88.20
12622;DHT22;6376;48.182;-1.644;2023-04-29T03:06:54;14.70;88.30
12622;DHT22;6376;48.182;-1.644;2023-04-29T03:09:21;14.70;88.30
12622;DHT22;6376;48.182;-1.644;2023-04-29T03:11:48;14.70;88.30
12622;DHT22;6376;48.182;-1.644;2023-04-29T03:14:13;14.70;88.20
12622;DHT22;6376;48.182;-1.644;2023-04-29T03:16:39;14.70;88.20
12622;DHT22;6376;48.182;-1.644;2023-04-29T03:19:05;14.70;88.30
12622;DHT22;6376;48.182;-1.644;2023-04-29T03:21:30;14.70;88.30
12622;DHT22;6376;48.182;-1.644;2023-04-29T03:23:57;14.70;88.30
12622;DHT22;6376;48.182;-1.644;2023-04-29T03:26:22;14.70;88.30
12622;DHT22;6376;48.182;-1.644;2023-04-29T03:28:50;14.70;88.30
12622;DHT22;6376;48.182;-1.644;2023-04-29T03:31:15;14.70;88.30
12622;DHT22;6376;48.182;-1.644;2023-04-29T03:33:41;14.70;88.30
12622;DHT22;6376;48.182;-1.644;2023-04-29T03:36:07;14.60;88.30
12622;DHT22;6376;48.182;-1.644;2023-04-29T03:38:33;14.70;88.30
12622;DHT22;6376;48.182;-1.644;2023-04-29T03:40:59;14.60;88.30
12622;DHT22;6376;48.182;-1.644;2023-04-29T03:43:25;14.70;88.30
12622;DHT22;6376;48.182;-1.644;2023-04-29T03:45:51;14.60;88.30
12622;DHT22;6376;48.182;-1.644;2023-04-29T03:48:17;14.60;88.30
12622;DHT22;6376;48.182;-1.644;2023-04-29T03:50:43;14.60;88.30
12622;DHT22;6376;48.182;-1.644;2023-04-29T03:53:08;14.60;88.30
12622;DHT22;6376;48.182;-1.644;2023-04-29T03:55:34;14.60;88.30
12622;DHT22;6376;48.182;-1.644;2023-04-29T03:58:00;14.60;88.30
12622;DHT22;6376;48.182;-1.644;2023-04-29T04:00:26;14.60;88.30
12622;DHT22;6376;48.182;-1.644;2023-04-29T04:02:56;14.60;88.40
12622;DHT22;6376;48.182;-1.644;2023-04-29T04:05:21;14.60;88.30
12622;DHT22;6376;48.182;-1.644;2023-04-29T04:07:52;14.60;88.30
12622;DHT22;6376;48.182;-1.644;2023-04-29T04:10:18;14.60;88.30
12622;DHT22;6376;48.182;-1.644;2023-04-29T04:12:44;14.60;88.40
12622;DHT22;6376;48.182;-1.644;2023-04-29T04:15:11;14.60;88.30
12622;DHT22;6376;48.182;-1.644;2023-04-29T04:17:37;14.60;88.30
12622;DHT22;6376;48.182;-1.644;2023-04-29T04:20:03;14.60;88.40
12622;DHT22;6376;48.182;-1.644;2023-04-29T04:22:29;14.60;88.40
12622;DHT22;6376;48.182;-1.644;2023-04-29T04:24:55;14.60;88.40
12622;DHT22;6376;48.182;-1.644;2023-04-29T04:27:21;14.60;88.40
12622;DHT22;6376;48.182;-1.644;2023-04-29T04:29:46;14.60;88.40
12622;DHT22;6376;48.182;-1.644;2023-04-29T04:32:12;14.60;89.10
12622;DHT22;6376;48.182;-1.644;2023-04-29T04:34:38;14.60;88.40
12622;DHT22;6376;48.182;-1.644;2023-04-29T04:37:06;14.60;88.40
12622;DHT22;6376;48.182;-1.644;2023-04-29T04:39:32;14.60;88.50
12622;DHT22;6376;48.182;-1.644;2023-04-29T04:41:58;14.60;88.40
12622;DHT22;6376;48.182;-1.644;2023-04-29T04:44:23;14.60;88.50
12622;DHT22;6376;48.182;-1.644;2023-04-29T04:46:52;14.60;88.50
12622;DHT22;6376;48.182;-1.644;2023-04-29T04:49:18;14.60;88.40
12622;DHT22;6376;48.182;-1.644;2023-04-29T04:51:44;14.50;88.70
12622;DHT22;6376;48.182;-1.644;2023-04-29T04:54:12;14.60;88.50
12622;DHT22;6376;48.182;-1.644;2023-04-29T04:56:38;14.50;88.40
12622;DHT22;6376;48.182;-1.644;2023-04-29T04:59:03;14.60;88.50
12622;DHT22;6376;48.182;-1.644;2023-04-29T05:01:29;14.60;88.50
12622;DHT22;6376;48.182;-1.644;2023-04-29T05:03:55;14.60;88.60
12622;DHT22;6376;48.182;-1.644;2023-04-29T05:06:21;14.60;88.50
12622;DHT22;6376;48.182;-1.644;2023-04-29T05:08:47;14.50;88.50
12622;DHT22;6376;48.182;-1.644;2023-04-29T05:11:17;14.60;88.50
12622;DHT22;6376;48.182;-1.644;2023-04-29T05:13:43;14.60;88.40
12622;DHT22;6376;48.182;-1.644;2023-04-29T05:16:08;14.60;88.40
12622;DHT22;6376;48.182;-1.644;2023-04-29T05:18:34;14.60;88.50
12622;DHT22;6376;48.182;-1.644;2023-04-29T05:21:00;14.60;88.60
12622;DHT22;6376;48.182;-1.644;2023-04-29T05:23:26;14.60;88.40
12622;DHT22;6376;48.182;-1.644;2023-04-29T05:25:52;14.60;88.50
12622;DHT22;6376;48.182;-1.644;2023-04-29T05:28:18;14.60;88.50
12622;DHT22;6376;48.182;-1.644;2023-04-29T05:30:44;14.60;88.50
12622;DHT22;6376;48.182;-1.644;2023-04-29T05:33:10;14.60;88.50
12622;DHT22;6376;48.182;-1.644;2023-04-29T05:35:36;14.60;88.60
12622;DHT22;6376;48.182;-1.644;2023-04-29T05:38:02;14.60;88.50
12622;DHT22;6376;48.182;-1.644;2023-04-29T05:40:27;14.60;88.50
12622;DHT22;6376;48.182;-1.644;2023-04-29T05:42:53;14.60;88.50
12622;DHT22;6376;48.182;-1.644;2023-04-29T05:45:19;14.60;88.70
12622;DHT22;6376;48.182;-1.644;2023-04-29T05:47:45;14.60;88.50
12622;DHT22;6376;48.182;-1.644;2023-04-29T05:50:11;14.60;88.50
12622;DHT22;6376;48.182;-1.644;2023-04-29T05:52:37;14.50;88.50
12622;DHT22;6376;48.182;-1.644;2023-04-29T05:55:02;14.60;88.60
12622;DHT22;6376;48.182;-1.644;2023-04-29T05:57:28;14.50;88.40
12622;DHT22;6376;48.182;-1.644;2023-04-29T05:59:54;14.60;88.50
12622;DHT22;6376;48.182;-1.644;2023-04-29T06:02:20;14.50;88.50
12622;DHT22;6376;48.182;-1.644;2023-04-29T06:04:45;14.50;88.40
12622;DHT22;6376;48.182;-1.644;2023-04-29T06:07:12;14.50;88.40
12622;DHT22;6376;48.182;-1.644;2023-04-29T06:09:38;14.60;88.60
12622;DHT22;6376;48.182;-1.644;2023-04-29T06:12:04;14.50;88.50
12622;DHT22;6376;48.182;-1.644;2023-04-29T06:14:30;14.50;88.60
12622;DHT22;6376;48.182;-1.644;2023-04-29T06:16:56;14.50;88.50
12622;DHT22;6376;48.182;-1.644;2023-04-29T06:19:21;14.60;88.70
12622;DHT22;6376;48.182;-1.644;2023-04-29T06:21:47;14.60;88.60
12622;DHT22;6376;48.182;-1.644;2023-04-29T06:24:13;14.60;88.60
12622;DHT22;6376;48.182;-1.644;2023-04-29T06:26:39;14.50;88.40
12622;DHT22;6376;48.182;-1.644;2023-04-29T06:29:04;14.50;88.50
12622;DHT22;6376;48.182;-1.644;2023-04-29T06:31:30;14.50;88.50
12622;DHT22;6376;48.182;-1.644;2023-04-29T06:33:56;14.50;88.40
12622;DHT22;6376;48.182;-1.644;2023-04-29T06:36:21;14.60;88.60
12622;DHT22;6376;48.182;-1.644;2023-04-29T06:38:47;14.50;88.30
12622;DHT22;6376;48.182;-1.644;2023-04-29T06:41:13;14.60;88.50
12622;DHT22;6376;48.182;-1.644;2023-04-29T06:43:38;14.60;88.40
12622;DHT22;6376;48.182;-1.644;2023-04-29T06:46:05;14.60;88.50
12622;DHT22;6376;48.182;-1.644;2023-04-29T06:48:30;14.60;88.50
12622;DHT22;6376;48.182;-1.644;2023-04-29T06:50:57;14.60;88.40
12622;DHT22;6376;48.182;-1.644;2023-04-29T06:53:23;14.60;88.40
12622;DHT22;6376;48.182;-1.644;2023-04-29T06:55:49;14.60;88.40
12622;DHT22;6376;48.182;-1.644;2023-04-29T06:58:15;14.50;88.30
12622;DHT22;6376;48.182;-1.644;2023-04-29T07:00:49;14.60;88.30
12622;DHT22;6376;48.182;-1.644;2023-04-29T07:03:15;14.60;88.30
12622;DHT22;6376;48.182;-1.644;2023-04-29T07:05:42;14.60;88.30
12622;DHT22;6376;48.182;-1.644;2023-04-29T07:08:10;14.60;88.30
12622;DHT22;6376;48.182;-1.644;2023-04-29T07:10:36;14.60;88.30
12622;DHT22;6376;48.182;-1.644;2023-04-29T07:13:02;14.60;88.30
12622;DHT22;6376;48.182;-1.644;2023-04-29T07:15:32;14.60;88.40
12622;DHT22;6376;48.182;-1.644;2023-04-29T07:17:58;14.60;88.40
12622;DHT22;6376;48.182;-1.644;2023-04-29T07:20:25;14.60;88.30
12622;DHT22;6376;48.182;-1.644;2023-04-29T07:22:51;14.60;88.30
12622;DHT22;6376;48.182;-1.644;2023-04-29T07:25:17;14.60;88.30
12622;DHT22;6376;48.182;-1.644;2023-04-29T07:27:43;14.60;88.30
12622;DHT22;6376;48.182;-1.644;2023-04-29T07:30:09;14.60;88.30
12622;DHT22;6376;48.182;-1.644;2023-04-29T07:32:34;14.60;88.30
12622;DHT22;6376;48.182;-1.644;2023-04-29T07:35:01;14.50;88.10
12622;DHT22;6376;48.182;-1.644;2023-04-29T07:37:27;14.60;88.30
12622;DHT22;6376;48.182;-1.644;2023-04-29T07:39:53;14.60;88.40
12622;DHT22;6376;48.182;-1.644;2023-04-29T07:42:18;14.60;88.40
12622;DHT22;6376;48.182;-1.644;2023-04-29T07:44:44;14.60;88.30
12622;DHT22;6376;48.182;-1.644;2023-04-29T07:47:10;14.60;88.30
12622;DHT22;6376;48.182;-1.644;2023-04-29T07:49:37;14.60;88.30
12622;DHT22;6376;48.182;-1.644;2023-04-29T07:52:04;14.60;88.30
12622;DHT22;6376;48.182;-1.644;2023-04-29T07:54:29;14.50;88.20
12622;DHT22;6376;48.182;-1.644;2023-04-29T07:56:57;14.50;88.30
12622;DHT22;6376;48.182;-1.644;2023-04-29T07:59:22;14.50;88.20
12622;DHT22;6376;48.182;-1.644;2023-04-29T08:01:48;14.60;88.30
12622;DHT22;6376;48.182;-1.644;2023-04-29T08:04:14;14.50;88.30
12622;DHT22;6376;48.182;-1.644;2023-04-29T08:06:39;14.60;88.40
12622;DHT22;6376;48.182;-1.644;2023-04-29T08:09:06;14.60;88.50
12622;DHT22;6376;48.182;-1.644;2023-04-29T08:11:32;14.60;88.40
12622;DHT22;6376;48.182;-1.644;2023-04-29T08:13:57;14.60;88.30
12622;DHT22;6376;48.182;-1.644;2023-04-29T08:16:24;14.60;88.40
12622;DHT22;6376;48.182;-1.644;2023-04-29T08:18:51;14.60;88.50
12622;DHT22;6376;48.182;-1.644;2023-04-29T08:21:17;14.60;88.40
12622;DHT22;6376;48.182;-1.644;2023-04-29T08:23:44;14.60;88.40
12622;DHT22;6376;48.182;-1.644;2023-04-29T08:26:10;14.60;88.40
12622;DHT22;6376;48.182;-1.644;2023-04-29T08:28:39;14.60;88.40
12622;DHT22;6376;48.182;-1.644;2023-04-29T08:31:05;14.60;88.30
12622;DHT22;6376;48.182;-1.644;2023-04-29T08:33:35;14.60;88.30
12622;DHT22;6376;48.182;-1.644;2023-04-29T08:36:01;14.60;88.40
12622;DHT22;6376;48.182;-1.644;2023-04-29T08:38:30;14.60;88.40
12622;DHT22;6376;48.182;-1.644;2023-04-29T08:40:56;14.60;88.30
12622;DHT22;6376;48.182;-1.644;2023-04-29T08:43:22;14.60;88.30
12622;DHT22;6376;48.182;-1.644;2023-04-29T08:45:49;14.60;88.30
12622;DHT22;6376;48.182;-1.644;2023-04-29T08:48:17;14.60;88.20
12622;DHT22;6376;48.182;-1.644;2023-04-29T08:50:44;14.60;88.30
12622;DHT22;6376;48.182;-1.644;2023-04-29T08:53:11;14.60;88.20
12622;DHT22;6376;48.182;-1.644;2023-04-29T08:58:06;14.60;88.10
12622;DHT22;6376;48.182;-1.644;2023-04-29T09:00:33;14.60;88.10
12622;DHT22;6376;48.182;-1.644;2023-04-29T09:03:00;14.60;88.10
12622;DHT22;6376;48.182;-1.644;2023-04-29T09:05:31;14.60;88.00
12622;DHT22;6376;48.182;-1.644;2023-04-29T09:07:59;14.60;88.00
12622;DHT22;6376;48.182;-1.644;2023-04-29T09:10:27;14.60;88.00
12622;DHT22;6376;48.182;-1.644;2023-04-29T09:12:56;14.70;88.00
12622;DHT22;6376;48.182;-1.644;2023-04-29T09:15:25;14.60;88.10
12622;DHT22;6376;48.182;-1.644;2023-04-29T09:17:51;14.70;88.00
12622;DHT22;6376;48.182;-1.644;2023-04-29T09:22:51;14.70;87.90
12622;DHT22;6376;48.182;-1.644;2023-04-29T09:25:17;14.70;87.80
12622;DHT22;6376;48.182;-1.644;2023-04-29T09:27:43;14.70;87.80
12622;DHT22;6376;48.182;-1.644;2023-04-29T09:30:08;14.70;87.70
12622;DHT22;6376;48.182;-1.644;2023-04-29T09:32:35;14.70;87.80
12622;DHT22;6376;48.182;-1.644;2023-04-29T09:35:24;14.70;87.80
12622;DHT22;6376;48.182;-1.644;2023-04-29T09:37:50;14.70;87.80
12622;DHT22;6376;48.182;-1.644;2023-04-29T09:40:31;14.70;87.80
12622;DHT22;6376;48.182;-1.644;2023-04-29T09:42:58;14.70;87.80
12622;DHT22;6376;48.182;-1.644;2023-04-29T09:45:38;14.70;87.80
12622;DHT22;6376;48.182;-1.644;2023-04-29T09:48:04;14.70;87.90
12622;DHT22;6376;48.182;-1.644;2023-04-29T09:50:34;14.80;87.80
12622;DHT22;6376;48.182;-1.644;2023-04-29T09:53:03;14.80;87.70
12622;DHT22;6376;48.182;-1.644;2023-04-29T09:55:30;14.80;87.80
12622;DHT22;6376;48.182;-1.644;2023-04-29T09:57:57;14.80;87.70
12622;DHT22;6376;48.182;-1.644;2023-04-29T10:00:23;14.80;87.50
12622;DHT22;6376;48.182;-1.644;2023-04-29T10:02:50;14.80;87.50
12622;DHT22;6376;48.182;-1.644;2023-04-29T10:05:18;14.90;87.60
12622;DHT22;6376;48.182;-1.644;2023-04-29T10:07:46;14.90;87.70
12622;DHT22;6376;48.182;-1.644;2023-04-29T10:10:16;14.90;87.40
12622;DHT22;6376;48.182;-1.644;2023-04-29T10:12:43;14.90;87.30
12622;DHT22;6376;48.182;-1.644;2023-04-29T10:20:23;15.00;87.00
12622;DHT22;6376;48.182;-1.644;2023-04-29T10:22:51;15.00;86.90
12622;DHT22;6376;48.182;-1.644;2023-04-29T10:25:20;15.00;86.80
12622;DHT22;6376;48.182;-1.644;2023-04-29T10:27:47;15.10;86.60
12622;DHT22;6376;48.182;-1.644;2023-04-29T10:30:15;15.10;86.50
12622;DHT22;6376;48.182;-1.644;2023-04-29T10:32:44;15.10;86.50
12622;DHT22;6376;48.182;-1.644;2023-04-29T10:35:11;15.10;86.50
12622;DHT22;6376;48.182;-1.644;2023-04-29T10:37:38;15.10;86.40
12622;DHT22;6376;48.182;-1.644;2023-04-29T10:40:16;15.20;86.50
12622;DHT22;6376;48.182;-1.644;2023-04-29T10:42:47;15.20;86.40
12622;DHT22;6376;48.182;-1.644;2023-04-29T10:45:25;15.30;86.30
12622;DHT22;6376;48.182;-1.644;2023-04-29T10:50:40;15.40;85.70
12622;DHT22;6376;48.182;-1.644;2023-04-29T10:53:09;15.50;85.20
12622;DHT22;6376;48.182;-1.644;2023-04-29T10:55:36;15.60;84.30
12622;DHT22;6376;48.182;-1.644;2023-04-29T10:58:03;15.60;83.90
12622;DHT22;6376;48.182;-1.644;2023-04-29T11:00:33;15.60;83.50
12622;DHT22;6376;48.182;-1.644;2023-04-29T11:03:05;15.60;83.50
12622;DHT22;6376;48.182;-1.644;2023-04-29T11:05:35;15.60;83.60
12622;DHT22;6376;48.182;-1.644;2023-04-29T11:08:20;15.70;83.10
12622;DHT22;6376;48.182;-1.644;2023-04-29T11:11:08;15.70;82.70
12622;DHT22;6376;48.182;-1.644;2023-04-29T11:13:38;15.90;82.10
12622;DHT22;6376;48.182;-1.644;2023-04-29T11:18:30;16.00;81.70
12622;DHT22;6376;48.182;-1.644;2023-04-29T11:23:34;16.00;81.30
12622;DHT22;6376;48.182;-1.644;2023-04-29T11:26:01;16.10;81.20
12622;DHT22;6376;48.182;-1.644;2023-04-29T11:28:28;16.20;80.80
12622;DHT22;6376;48.182;-1.644;2023-04-29T11:30:56;16.20;80.30
12622;DHT22;6376;48.182;-1.644;2023-04-29T11:33:25;16.20;80.60
12622;DHT22;6376;48.182;-1.644;2023-04-29T11:35:52;16.20;80.60
12622;DHT22;6376;48.182;-1.644;2023-04-29T11:38:26;16.20;80.50
12622;DHT22;6376;48.182;-1.644;2023-04-29T11:40:54;16.30;80.50
12622;DHT22;6376;48.182;-1.644;2023-04-29T11:43:20;16.30;80.00
12622;DHT22;6376;48.182;-1.644;2023-04-29T11:45:47;16.40;79.90
12622;DHT22;6376;48.182;-1.644;2023-04-29T11:48:23;16.40;79.70
12622;DHT22;6376;48.182;-1.644;2023-04-29T11:50:56;16.40;79.60
12622;DHT22;6376;48.182;-1.644;2023-04-29T11:53:23;16.40;79.70
12622;DHT22;6376;48.182;-1.644;2023-04-29T11:55:52;16.40;79.70
12622;DHT22;6376;48.182;-1.644;2023-04-29T11:58:22;16.50;79.60
12622;DHT22;6376;48.182;-1.644;2023-04-29T12:00:49;16.50;79.40
12622;DHT22;6376;48.182;-1.644;2023-04-29T12:03:18;16.50;79.40
12622;DHT22;6376;48.182;-1.644;2023-04-29T12:05:49;16.50;79.60
12622;DHT22;6376;48.182;-1.644;2023-04-29T12:08:22;16.50;79.40
12622;DHT22;6376;48.182;-1.644;2023-04-29T12:10:48;16.50;79.70
12622;DHT22;6376;48.182;-1.644;2023-04-29T12:13:15;16.50;79.70
12622;DHT22;6376;48.182;-1.644;2023-04-29T12:15:43;16.50;79.50
12622;DHT22;6376;48.182;-1.644;2023-04-29T12:18:09;16.50;79.80
12622;DHT22;6376;48.182;-1.644;2023-04-29T12:20:35;16.60;79.60
12622;DHT22;6376;48.182;-1.644;2023-04-29T12:23:13;16.60;79.20
12622;DHT22;6376;48.182;-1.644;2023-04-29T12:25:39;16.70;79.10
12622;DHT22;6376;48.182;-1.644;2023-04-29T12:28:11;16.70;79.10
12622;DHT22;6376;48.182;-1.644;2023-04-29T12:30:37;16.70;79.00
12622;DHT22;6376;48.182;-1.644;2023-04-29T12:33:03;16.70;78.90
12622;DHT22;6376;48.182;-1.644;2023-04-29T12:35:28;16.70;79.00
12622;DHT22;6376;48.182;-1.644;2023-04-29T12:37:57;16.70;79.30
12622;DHT22;6376;48.182;-1.644;2023-04-29T12:40:23;16.80;79.20
12622;DHT22;6376;48.182;-1.644;2023-04-29T12:42:49;16.80;79.10
12622;DHT22;6376;48.182;-1.644;2023-04-29T12:45:33;16.70;79.10
12622;DHT22;6376;48.182;-1.644;2023-04-29T12:48:00;16.70;79.10
12622;DHT22;6376;48.182;-1.644;2023-04-29T12:50:36;16.80;79.10
12622;DHT22;6376;48.182;-1.644;2023-04-29T12:53:04;16.80;79.00
12622;DHT22;6376;48.182;-1.644;2023-04-29T12:55:40;16.80;79.00
12622;DHT22;6376;48.182;-1.644;2023-04-29T12:58:05;16.70;79.30
12622;DHT22;6376;48.182;-1.644;2023-04-29T13:00:31;16.70;79.60
12622;DHT22;6376;48.182;-1.644;2023-04-29T13:02:59;16.60;79.80
12622;DHT22;6376;48.182;-1.644;2023-04-29T13:05:24;16.60;80.00
12622;DHT22;6376;48.182;-1.644;2023-04-29T13:07:50;16.60;80.00
12622;DHT22;6376;48.182;-1.644;2023-04-29T13:10:16;16.60;80.20
12622;DHT22;6376;48.182;-1.644;2023-04-29T13:12:41;16.60;80.20
12622;DHT22;6376;48.182;-1.644;2023-04-29T13:15:08;16.60;80.00
12622;DHT22;6376;48.182;-1.644;2023-04-29T13:17:36;16.60;79.90
12622;DHT22;6376;48.182;-1.644;2023-04-29T13:20:03;16.70;79.90
12622;DHT22;6376;48.182;-1.644;2023-04-29T13:22:29;16.70;79.90
12622;DHT22;6376;48.182;-1.644;2023-04-29T13:24:55;16.70;79.90
12622;DHT22;6376;48.182;-1.644;2023-04-29T13:27:20;16.70;79.80
12622;DHT22;6376;48.182;-1.644;2023-04-29T13:29:46;16.70;79.80
12622;DHT22;6376;48.182;-1.644;2023-04-29T13:32:11;16.70;79.90
12622;DHT22;6376;48.182;-1.644;2023-04-29T13:34:37;16.70;80.00
12622;DHT22;6376;48.182;-1.644;2023-04-29T13:37:03;16.70;80.00
12622;DHT22;6376;48.182;-1.644;2023-04-29T13:39:28;16.70;79.90
12622;DHT22;6376;48.182;-1.644;2023-04-29T13:41:54;16.70;80.30
12622;DHT22;6376;48.182;-1.644;2023-04-29T13:44:19;16.60;80.10
12622;DHT22;6376;48.182;-1.644;2023-04-29T13:46:45;16.60;80.30
12622;DHT22;6376;48.182;-1.644;2023-04-29T13:49:11;16.60;80.30
12622;DHT22;6376;48.182;-1.644;2023-04-29T13:51:37;16.60;80.30
12622;DHT22;6376;48.182;-1.644;2023-04-29T13:54:02;16.60;80.30
12622;DHT22;6376;48.182;-1.644;2023-04-29T13:56:28;16.60;80.30
12622;DHT22;6376;48.182;-1.644;2023-04-29T13:58:54;16.60;80.30
12622;DHT22;6376;48.182;-1.644;2023-04-29T14:01:19;16.60;80.30
12622;DHT22;6376;48.182;-1.644;2023-04-29T14:03:46;16.70;80.30
12622;DHT22;6376;48.182;-1.644;2023-04-29T14:06:12;16.70;80.20
12622;DHT22;6376;48.182;-1.644;2023-04-29T14:08:38;16.60;80.30
12622;DHT22;6376;48.182;-1.644;2023-04-29T14:11:03;16.60;80.40
12622;DHT22;6376;48.182;-1.644;2023-04-29T14:13:29;16.60;80.50
12622;DHT22;6376;48.182;-1.644;2023-04-29T14:15:55;16.60;80.60
12622;DHT22;6376;48.182;-1.644;2023-04-29T14:18:21;16.60;80.50
12622;DHT22;6376;48.182;-1.644;2023-04-29T14:20:46;16.60;80.50
12622;DHT22;6376;48.182;-1.644;2023-04-29T14:23:12;16.70;80.50
12622;DHT22;6376;48.182;-1.644;2023-04-29T14:25:38;16.70;80.40
12622;DHT22;6376;48.182;-1.644;2023-04-29T14:28:03;16.70;80.50
12622;DHT22;6376;48.182;-1.644;2023-04-29T14:30:29;16.70;80.50
12622;DHT22;6376;48.182;-1.644;2023-04-29T14:32:55;16.70;80.50
12622;DHT22;6376;48.182;-1.644;2023-04-29T14:35:20;16.70;80.60
12622;DHT22;6376;48.182;-1.644;2023-04-29T14:37:46;16.70;80.60
12622;DHT22;6376;48.182;-1.644;2023-04-29T14:40:12;16.70;80.40
12622;DHT22;6376;48.182;-1.644;2023-04-29T14:42:37;16.70;80.50
12622;DHT22;6376;48.182;-1.644;2023-04-29T14:45:03;16.70;80.50
12622;DHT22;6376;48.182;-1.644;2023-04-29T14:47:29;16.70;80.60
12622;DHT22;6376;48.182;-1.644;2023-04-29T14:49:54;16.70;80.80
12622;DHT22;6376;48.182;-1.644;2023-04-29T14:52:20;16.70;80.70
12622;DHT22;6376;48.182;-1.644;2023-04-29T14:54:46;16.70;80.70
12622;DHT22;6376;48.182;-1.644;2023-04-29T14:57:12;16.60;80.80
12622;DHT22;6376;48.182;-1.644;2023-04-29T14:59:38;16.70;80.80
12622;DHT22;6376;48.182;-1.644;2023-04-29T15:02:03;16.70;80.80
12622;DHT22;6376;48.182;-1.644;2023-04-29T15:04:29;16.70;80.80
12622;DHT22;6376;48.182;-1.644;2023-04-29T15:06:56;16.60;80.90
12622;DHT22;6376;48.182;-1.644;2023-04-29T15:09:22;16.70;80.80
12622;DHT22;6376;48.182;-1.644;2023-04-29T15:11:48;16.70;80.70
12622;DHT22;6376;48.182;-1.644;2023-04-29T15:14:14;16.70;80.80
12622;DHT22;6376;48.182;-1.644;2023-04-29T15:16:40;16.70;80.90
12622;DHT22;6376;48.182;-1.644;2023-04-29T15:19:05;16.70;80.90
12622;DHT22;6376;48.182;-1.644;2023-04-29T15:21:31;16.70;80.80
12622;DHT22;6376;48.182;-1.644;2023-04-29T15:23:57;16.70;80.80
12622;DHT22;6376;48.182;-1.644;2023-04-29T15:26:22;16.70;80.90
12622;DHT22;6376;48.182;-1.644;2023-04-29T15:28:48;16.70;80.80
12622;DHT22;6376;48.182;-1.644;2023-04-29T15:31:14;16.70;80.90
12622;DHT22;6376;48.182;-1.644;2023-04-29T15:33:39;16.70;80.90
12622;DHT22;6376;48.182;-1.644;2023-04-29T15:36:06;16.70;80.90
12622;DHT22;6376;48.182;-1.644;2023-04-29T15:38:32;16.70;80.80
12622;DHT22;6376;48.182;-1.644;2023-04-29T15:40:57;16.70;80.80
12622;DHT22;6376;48.182;-1.644;2023-04-29T15:43:29;16.70;80.90
12622;DHT22;6376;48.182;-1.644;2023-04-29T15:45:57;16.70;80.90
12622;DHT22;6376;48.182;-1.644;2023-04-29T15:48:23;16.70;80.90
12622;DHT22;6376;48.182;-1.644;2023-04-29T15:50:49;16.70;80.90
12622;DHT22;6376;48.182;-1.644;2023-04-29T15:53:15;16.70;81.00
12622;DHT22;6376;48.182;-1.644;2023-04-29T15:55:40;16.70;80.90
12622;DHT22;6376;48.182;-1.644;2023-04-29T15:58:06;16.60;81.00
12622;DHT22;6376;48.182;-1.644;2023-04-29T16:00:32;16.70;80.90
12622;DHT22;6376;48.182;-1.644;2023-04-29T16:02:57;16.70;80.90